メインページ
METAR-TAF:

METAR-TAF

空港 :

Goose Bay, ニューファンドランド・ラブラドール州, カナダ

緯度: 53-19N, 経度: 060-25W, 海抜: 46m

現時点の気象観測

当レポートは52分前の23:20(UTC)に作成
の風 10kt、最大15ktの突風を伴う
気温 9°C
湿度 81%
気圧 1013 hPa
視程: 24.1km
高度1800ftの雲はほとんどない
高度2200ftの雲はほとんどない
高度2700ftの曇り

METAR: CYYR 232320Z 01010G15KT 15SM FEW018 FEW022 OVC027 09/06 A2990 RMK SC1SC2SC6 SLP128

時間: 21:12 (00:12 UTC)

予報

当レポートは42分前の23:30(UTC)に作成
予報は24日の 00時(UTC)から 24日の 24時(UTC)まで有効
の風 10kt
視程: 10km
高度1500ftの雲は散在している
高度2500ftの曇り
24日の 00時(UTC)から 24日の 14時(UTC)まで一時的に
高度1500ftの千切れ雲あり
高度2500ftの曇り
24日の 02時(UTC)から 24日の 04時(UTC)まで徐々に
北/北西の風 10kt
24日の 1400時(UTC)から
北西の風 8kt
視程: 10km
高度2000ftの雲は散在している
高度3000ftの千切れ雲あり
24日の 1800時(UTC)から
北/北西の風 10kt
視程: 10km
高度5000ftの千切れ雲あり
24日の 22時(UTC)から 24日の 24時(UTC)まで徐々に
変向風 3kt

TAF: CYYR 232330Z 2400/2424 01010KT P6SM SCT015 OVC025 TEMPO 2400/2414 BKN015 OVC025 BECMG 2402/2404 34010KT FM241400 32008KT P6SM SCT020 BKN030 FM241800 34010KT P6SM BKN050 BECMG 2422/2424 VRB03KT RMK NXT FCST BY 240600Z

4,000以上の空港の気象観測と天気予報(METAR報とTAF報)

利用可能な観測所は地図上に黄色い丸と赤い丸で示す。

丸の上にカーソルを重ねると観測所名を参照できる。

次にクリックすると気象観測と天気予報を参照できる。

マップの切り替え:黒色「×」印の緑ボタンをクリックして拡大、「-」印の緑ボタンをクリックして縮小、緑色の三角印をクリックして隣りの地図に切り替え


METAR-TAF: